Time;durP1;ratioP1;P1;durP2;ratioP2;P2;SDS_P1;SDS_P2;PMS_P1;PMS_P2;Temp;Humidity;BMP_temperature;BMP_pressure;BME280_temperature;BME280_humidity;BME280_pressure;Samples;Min_cycle;Max_cycle;Signal;HPM_P1;HPM_P2
2021/08/05 00:01:58;;;;;;;2.93;2.73;;;18.60;99.90;;;;;;5024170;28;20176;-76
2021/08/05 00:04:24;;;;;;;4.53;2.37;;;18.60;99.90;;;;;;5012413;28;20208;-76
2021/08/05 00:06:49;;;;;;;7.20;4.70;;;18.50;99.90;;;;;;5013478;28;20172;-76
2021/08/05 00:09:15;;;;;;;1.27;1.17;;;18.50;99.90;;;;;;4997622;28;20230;-76
2021/08/05 00:11:40;;;;;;;3.00;2.03;;;18.40;99.90;;;;;;5025103;28;20179;-76
2021/08/05 00:14:06;;;;;;;5.87;4.53;;;18.50;99.90;;;;;;5021129;28;20352;-76
2021/08/05 00:16:32;;;;;;;6.33;4.53;;;18.40;99.90;;;;;;5012186;28;20165;-75
2021/08/05 00:18:57;;;;;;;5.03;3.57;;;18.40;99.90;;;;;;5009368;28;20469;-76
2021/08/05 00:21:23;;;;;;;4.40;3.80;;;18.40;99.90;;;;;;5023965;28;20184;-76
2021/08/05 00:23:48;;;;;;;8.43;3.97;;;18.40;99.90;;;;;;5012363;28;20192;-76
2021/08/05 00:26:14;;;;;;;3.77;2.60;;;18.40;99.90;;;;;;5015614;28;20672;-76
2021/08/05 00:28:41;;;;;;;4.90;3.67;;;18.30;99.90;;;;;;5020885;28;20179;-76
2021/08/05 00:31:07;;;;;;;12.93;3.07;;;18.40;99.90;;;;;;5025301;28;20183;-76
2021/08/05 00:33:33;;;;;;;4.77;3.40;;;18.40;99.90;;;;;;5015312;28;20419;-76
2021/08/05 00:35:59;;;;;;;4.87;4.27;;;18.30;99.90;;;;;;5031263;28;20206;-75
2021/08/05 00:38:25;;;;;;;2.13;1.93;;;18.30;99.90;;;;;;5030478;28;20760;-76
2021/08/05 00:40:52;;;;;;;3.37;3.07;;;18.30;99.90;;;;;;5000464;28;20172;-76
2021/08/05 00:43:18;;;;;;;3.90;2.37;;;18.20;99.90;;;;;;5030210;28;20970;-76
2021/08/05 00:45:43;;;;;;;2.90;2.63;;;18.20;99.90;;;;;;5013431;28;20433;-76
2021/08/05 00:48:09;;;;;;;5.90;3.57;;;18.10;99.90;;;;;;5012221;28;20430;-76
2021/08/05 00:50:34;;;;;;;1.73;1.40;;;18.10;99.90;;;;;;5025771;28;20173;-76
2021/08/05 00:53:00;;;;;;;3.13;2.70;;;18.10;99.90;;;;;;5026421;28;20202;-75
2021/08/05 00:55:26;;;;;;;2.57;2.40;;;18.10;99.90;;;;;;5023313;28;20246;-75
2021/08/05 00:57:53;;;;;;;3.43;2.10;;;18.00;99.90;;;;;;5001158;28;20176;-76
2021/08/05 01:00:19;;;;;;;7.47;4.90;;;18.00;99.90;;;;;;5027231;28;20422;-76
2021/08/05 01:02:50;;;;;;;3.07;1.87;;;18.00;99.90;;;;;;5011484;28;20452;-76
2021/08/05 01:05:17;;;;;;;1.97;1.83;;;18.00;99.90;;;;;;5011259;28;20434;-76
2021/08/05 01:07:55;;;;;;;3.43;3.07;;;18.00;99.90;;;;;;5031353;28;20947;-76
2021/08/05 01:10:56;;;;;;;4.20;2.20;;;18.00;99.90;;;;;;5014623;28;20459;-76
2021/08/05 01:13:22;;;;;;;4.93;3.33;;;18.00;99.90;;;;;;5008298;28;20461;-76
2021/08/05 01:15:50;;;;;;;4.97;4.00;;;17.90;99.90;;;;;;5016651;28;20513;-75
2021/08/05 01:18:29;;;;;;;2.20;1.63;;;17.90;99.90;;;;;;5015129;28;20186;-75
2021/08/05 01:20:55;;;;;;;4.77;2.70;;;17.80;99.90;;;;;;5027494;28;20426;-76
2021/08/05 01:23:42;;;;;;;3.80;2.50;;;17.90;99.90;;;;;;5030928;28;20565;-76
2021/08/05 01:26:27;;;;;;;2.80;1.90;;;17.90;99.90;;;;;;5033507;28;20425;-76
2021/08/05 01:28:53;;;;;;;4.17;2.43;;;17.90;99.90;;;;;;5030753;28;20840;-76
2021/08/05 01:31:22;;;;;;;2.53;2.37;;;17.90;99.90;;;;;;5015345;28;20439;-75
2021/08/05 01:33:49;;;;;;;5.13;3.83;;;17.80;99.90;;;;;;5008321;28;20706;-76
2021/08/05 01:36:16;;;;;;;3.87;3.10;;;17.80;99.90;;;;;;5024630;28;20486;-75
2021/08/05 01:38:43;;;;;;;2.90;2.37;;;17.80;99.90;;;;;;5023421;28;20436;-75
2021/08/05 01:41:09;;;;;;;4.47;4.17;;;17.80;99.90;;;;;;5030819;28;20418;-75
2021/08/05 01:43:37;;;;;;;4.73;4.33;;;17.80;99.90;;;;;;5032949;28;20540;-75
2021/08/05 01:46:03;;;;;;;3.07;2.77;;;17.90;99.90;;;;;;5026823;28;20517;-76
2021/08/05 01:48:31;;;;;;;2.40;2.23;;;17.90;99.90;;;;;;5015162;28;20509;-75
2021/08/05 01:50:59;;;;;;;5.60;5.20;;;17.90;99.90;;;;;;5030430;28;20444;-76
2021/08/05 01:53:25;;;;;;;6.07;3.10;;;17.90;99.90;;;;;;5030038;28;20423;-75
2021/08/05 01:55:51;;;;;;;3.00;1.50;;;17.90;99.90;;;;;;4997874;28;21073;-76
2021/08/05 01:58:17;;;;;;;2.70;2.50;;;17.90;99.90;;;;;;5006672;28;20426;-76
2021/08/05 02:00:43;;;;;;;3.47;2.03;;;17.80;99.90;;;;;;5025792;28;20203;-76
2021/08/05 02:03:09;;;;;;;7.57;2.87;;;17.90;99.90;;;;;;5019947;28;20576;-76
2021/08/05 02:06:14;;;;;;;4.20;2.73;;;17.90;99.90;;;;;;5033827;28;20430;-76
2021/08/05 02:09:00;;;;;;;2.73;2.53;;;17.80;99.90;;;;;;5002206;28;20447;-76
2021/08/05 02:11:28;;;;;;;1.73;1.63;;;17.90;99.90;;;;;;5033397;28;20434;-75
2021/08/05 02:13:56;;;;;;;1.87;1.67;;;17.90;99.90;;;;;;5028116;28;20554;-76
2021/08/05 02:16:25;;;;;;;3.83;2.37;;;17.90;99.90;;;;;;5027134;28;20430;-76
2021/08/05 02:18:52;;;;;;;3.70;3.07;;;17.90;99.90;;;;;;5031682;28;20418;-76
2021/08/05 02:21:24;;;;;;;3.40;3.03;;;17.90;99.90;;;;;;5026071;28;20415;-76
2021/08/05 02:23:55;;;;;;;1.90;1.80;;;17.90;99.90;;;;;;5014053;28;20461;-76
2021/08/05 02:26:21;;;;;;;6.43;2.87;;;17.80;99.90;;;;;;5029550;28;20422;-76
2021/08/05 02:28:47;;;;;;;2.93;2.70;;;17.80;99.90;;;;;;5016364;28;20418;-76
2021/08/05 02:31:13;;;;;;;5.20;2.90;;;17.70;99.90;;;;;;5033481;28;20569;-76
2021/08/05 02:33:41;;;;;;;6.63;3.80;;;17.70;99.90;;;;;;5029790;28;20438;-76
2021/08/05 02:36:06;;;;;;;4.40;2.80;;;17.70;99.90;;;;;;5026602;28;20454;-76
2021/08/05 02:38:32;;;;;;;3.53;2.97;;;17.70;99.90;;;;;;5033317;28;20418;-75
2021/08/05 02:40:58;;;;;;;6.00;4.43;;;17.70;99.90;;;;;;5016119;28;20258;-75
2021/08/05 02:43:26;;;;;;;2.60;2.40;;;17.70;99.90;;;;;;5012255;28;20210;-76
2021/08/05 02:45:53;;;;;;;3.30;1.60;;;17.60;99.90;;;;;;5014200;28;20944;-76
2021/08/05 02:48:19;;;;;;;2.27;2.10;;;17.60;99.90;;;;;;5013990;28;20416;-76
2021/08/05 02:50:45;;;;;;;2.57;1.67;;;17.60;99.90;;;;;;5000847;28;20481;-76
2021/08/05 02:53:12;;;;;;;4.27;3.60;;;17.60;99.90;;;;;;5028970;28;20242;-76
2021/08/05 02:55:38;;;;;;;2.37;2.27;;;17.60;99.90;;;;;;5033044;28;20434;-76
2021/08/05 02:58:03;;;;;;;3.93;2.57;;;17.50;99.90;;;;;;5016223;28;20425;-76
2021/08/05 03:00:29;;;;;;;2.60;1.73;;;17.50;99.90;;;;;;5023522;28;20461;-76
2021/08/05 03:02:55;;;;;;;2.57;2.40;;;17.50;99.90;;;;;;5014346;28;20176;-75
2021/08/05 03:05:21;;;;;;;4.63;2.97;;;17.50;99.90;;;;;;5032549;28;20214;-76
2021/08/05 03:07:46;;;;;;;2.97;1.63;;;17.50;99.90;;;;;;5033749;28;20418;-75
2021/08/05 03:10:15;;;;;;;1.93;1.70;;;17.50;99.90;;;;;;5026204;28;20180;-76
2021/08/05 03:12:42;;;;;;;2.57;2.07;;;17.50;99.90;;;;;;5014134;28;20244;-76
2021/08/05 03:15:08;;;;;;;3.10;2.90;;;17.50;99.90;;;;;;5022511;28;20466;-76
2021/08/05 03:17:34;;;;;;;8.90;4.30;;;17.50;99.90;;;;;;5018565;28;20422;-76
2021/08/05 03:19:59;;;;;;;5.80;4.83;;;17.40;99.90;;;;;;5016785;28;20492;-76
2021/08/05 03:22:25;;;;;;;4.50;2.93;;;17.50;99.90;;;;;;5016798;28;20191;-76
2021/08/05 03:24:50;;;;;;;2.80;2.47;;;17.50;99.90;;;;;;5033021;28;20195;-76
2021/08/05 03:27:16;;;;;;;4.50;2.10;;;17.50;99.90;;;;;;5014913;28;20168;-76
2021/08/05 03:29:42;;;;;;;4.60;4.20;;;17.50;99.90;;;;;;5002505;28;20187;-75
2021/08/05 03:32:07;;;;;;;3.33;3.10;;;17.50;99.90;;;;;;5020252;28;20168;-76
2021/08/05 03:34:33;;;;;;;3.47;1.97;;;17.50;99.90;;;;;;5029498;28;20695;-76
2021/08/05 03:36:58;;;;;;;6.63;2.27;;;17.40;99.90;;;;;;4999984;28;20183;-76
2021/08/05 03:39:24;;;;;;;2.53;2.40;;;17.40;99.90;;;;;;5017965;28;20233;-75
2021/08/05 03:41:50;;;;;;;1.43;1.33;;;17.40;99.90;;;;;;5018874;28;20538;-75
2021/08/05 03:44:15;;;;;;;2.90;2.27;;;17.50;99.90;;;;;;5021246;28;20278;-76
2021/08/05 03:46:41;;;;;;;4.20;2.83;;;17.50;99.90;;;;;;5024017;28;20663;-76
2021/08/05 03:49:07;;;;;;;2.93;1.87;;;17.60;99.90;;;;;;5021965;28;20515;-75
2021/08/05 03:51:33;;;;;;;3.80;1.70;;;17.60;99.90;;;;;;5014585;28;20419;-76
2021/08/05 03:53:59;;;;;;;2.50;2.30;;;17.50;99.90;;;;;;5030403;28;20209;-76
2021/08/05 03:56:24;;;;;;;1.80;1.70;;;17.60;99.90;;;;;;5014516;28;20688;-76
2021/08/05 03:58:50;;;;;;;2.87;2.67;;;17.60;99.90;;;;;;5032825;28;20203;-76
2021/08/05 04:01:15;;;;;;;1.30;1.20;;;17.50;99.90;;;;;;5013881;28;20175;-76
2021/08/05 04:03:41;;;;;;;2.43;1.70;;;17.50;99.90;;;;;;5021692;28;20241;-76
2021/08/05 04:06:08;;;;;;;4.20;2.90;;;17.50;99.90;;;;;;5027736;28;20283;-75
2021/08/05 04:08:34;;;;;;;6.20;1.90;;;17.50;99.90;;;;;;5013319;28;20180;-76
2021/08/05 04:11:00;;;;;;;1.60;1.50;;;17.50;99.90;;;;;;5032854;28;20426;-76
2021/08/05 04:13:25;;;;;;;2.93;1.80;;;17.50;99.90;;;;;;4999774;28;20513;-76
2021/08/05 04:15:51;;;;;;;2.07;1.63;;;17.50;99.90;;;;;;5026788;28;20298;-76
2021/08/05 04:18:17;;;;;;;3.43;2.40;;;17.60;99.90;;;;;;5014547;28;20237;-75
2021/08/05 04:20:42;;;;;;;3.27;1.10;;;17.50;99.90;;;;;;5031465;28;20199;-76
2021/08/05 04:23:08;;;;;;;2.27;2.13;;;17.50;99.90;;;;;;5014409;28;20180;-76
2021/08/05 04:25:33;;;;;;;3.23;1.10;;;17.50;99.90;;;;;;5012438;28;20204;-76
2021/08/05 04:27:59;;;;;;;2.37;1.50;;;17.50;99.90;;;;;;5012485;28;20179;-76
2021/08/05 04:30:25;;;;;;;1.70;1.60;;;17.50;99.90;;;;;;5013357;28;20259;-76
2021/08/05 04:32:51;;;;;;;1.67;1.57;;;17.50;99.90;;;;;;5010140;28;20176;-76
2021/08/05 04:35:18;;;;;;;2.50;2.30;;;17.50;99.90;;;;;;5027927;28;20442;-76
2021/08/05 04:37:55;;;;;;;2.20;2.10;;;17.50;99.90;;;;;;5020872;28;20647;-76
2021/08/05 04:40:22;;;;;;;3.60;2.27;;;17.50;99.90;;;;;;4998934;28;20421;-76
2021/08/05 04:42:48;;;;;;;1.90;1.67;;;17.50;99.90;;;;;;5024209;28;20923;-76
2021/08/05 04:45:14;;;;;;;1.97;1.87;;;17.60;99.90;;;;;;5030494;28;20476;-76
2021/08/05 04:48:00;;;;;;;3.47;2.50;;;17.60;99.90;;;;;;5002495;28;20558;-75
2021/08/05 04:50:28;;;;;;;1.33;1.23;;;17.60;99.90;;;;;;5031750;28;20427;-76
2021/08/05 04:52:55;;;;;;;5.87;2.80;;;17.60;99.90;;;;;;5016182;28;20423;-76
2021/08/05 04:55:21;;;;;;;1.87;1.60;;;17.60;99.90;;;;;;5026312;28;20445;-76
2021/08/05 04:57:51;;;;;;;3.03;2.73;;;17.60;99.90;;;;;;5035869;28;20422;-76
2021/08/05 05:00:22;;;;;;;1.60;1.20;;;17.60;99.90;;;;;;5017518;28;20422;-76
2021/08/05 05:02:48;;;;;;;3.77;3.57;;;17.60;99.90;;;;;;5035651;28;20414;-76
2021/08/05 05:05:13;;;;;;;2.90;2.70;;;17.70;99.90;;;;;;5026131;28;20462;-76
2021/08/05 05:07:39;;;;;;;5.80;1.57;;;17.60;99.90;;;;;;5017022;28;20220;-76
2021/08/05 05:10:05;;;;;;;3.00;1.80;;;17.60;99.90;;;;;;5026922;28;20177;-76
2021/08/05 05:12:30;;;;;;;1.57;1.47;;;17.60;99.90;;;;;;5029813;28;20275;-75
2021/08/05 05:14:56;;;;;;;2.40;1.90;;;17.60;99.90;;;;;;5025725;28;20215;-76
2021/08/05 05:17:21;;;;;;;1.83;1.63;;;17.70;99.90;;;;;;5035542;28;20680;-76
2021/08/05 05:19:47;;;;;;;2.13;2.03;;;17.70;99.90;;;;;;5034351;28;20184;-76
2021/08/05 05:22:12;;;;;;;2.70;2.20;;;17.70;99.90;;;;;;5018148;28;20179;-76
2021/08/05 05:24:38;;;;;;;2.07;1.63;;;17.60;99.90;;;;;;5034916;28;20199;-75
2021/08/05 05:27:04;;;;;;;3.23;2.20;;;17.70;99.90;;;;;;5031156;28;20175;-77
2021/08/05 05:29:29;;;;;;;3.27;1.23;;;17.70;99.90;;;;;;5025795;28;20510;-76
2021/08/05 05:31:55;;;;;;;2.43;1.80;;;17.80;99.90;;;;;;5015872;28;20403;-76
2021/08/05 05:34:21;;;;;;;3.27;2.50;;;17.80;99.90;;;;;;5031505;28;20203;-76
2021/08/05 05:36:47;;;;;;;1.93;1.50;;;17.90;99.90;;;;;;5015611;28;20203;-76
2021/08/05 05:39:12;;;;;;;3.67;2.53;;;18.00;99.90;;;;;;5018168;28;20183;-76
2021/08/05 05:41:38;;;;;;;4.90;1.90;;;18.10;99.90;;;;;;5020154;28;20427;-76
2021/08/05 05:44:04;;;;;;;2.43;1.27;;;18.20;99.90;;;;;;5016775;28;20282;-76
2021/08/05 05:46:29;;;;;;;3.13;2.73;;;18.30;99.90;;;;;;5029517;28;20222;-76
2021/08/05 05:48:55;;;;;;;6.40;4.07;;;18.30;99.90;;;;;;5033916;28;20179;-74
2021/08/05 05:51:21;;;;;;;4.13;2.80;;;18.40;99.90;;;;;;5025537;28;20180;-78
2021/08/05 05:53:46;;;;;;;5.27;1.70;;;18.50;99.90;;;;;;5028303;28;20190;-77
2021/08/05 05:56:12;;;;;;;2.60;2.23;;;18.60;99.90;;;;;;5031708;28;20207;-76
2021/08/05 05:58:38;;;;;;;5.17;4.67;;;18.60;99.90;;;;;;5029960;28;20177;-76
2021/08/05 06:01:04;;;;;;;3.10;2.90;;;18.60;99.90;;;;;;5021740;28;20465;-76
2021/08/05 06:03:29;;;;;;;2.03;1.80;;;18.70;99.90;;;;;;5024228;28;20491;-75
2021/08/05 06:05:55;;;;;;;2.80;2.60;;;18.70;99.90;;;;;;5029697;28;20196;-76
2021/08/05 06:08:20;;;;;;;2.63;2.43;;;18.70;99.90;;;;;;5028190;28;20638;-76
2021/08/05 06:10:46;;;;;;;2.90;2.60;;;18.70;99.90;;;;;;5030466;28;20262;-76
2021/08/05 06:13:12;;;;;;;2.30;2.10;;;18.70;99.90;;;;;;5025364;28;20230;-75
2021/08/05 06:15:37;;;;;;;2.17;1.90;;;18.80;99.90;;;;;;5032172;28;20619;-76
2021/08/05 06:18:04;;;;;;;1.40;1.30;;;18.80;99.90;;;;;;5034213;28;20387;-76
2021/08/05 06:20:30;;;;;;;2.43;1.80;;;18.80;99.90;;;;;;5034218;28;20168;-76
2021/08/05 06:22:55;;;;;;;4.47;2.33;;;18.90;99.90;;;;;;5028919;28;20852;-76
2021/08/05 06:25:21;;;;;;;2.40;2.20;;;18.80;99.90;;;;;;5033523;28;20246;-76
2021/08/05 06:27:47;;;;;;;2.00;1.47;;;18.80;99.90;;;;;;5014423;28;20169;-76
2021/08/05 06:30:14;;;;;;;4.93;1.70;;;18.90;99.90;;;;;;5031021;28;20656;-76
2021/08/05 06:32:40;;;;;;;4.27;3.87;;;18.90;99.90;;;;;;5021839;28;20442;-76
2021/08/05 06:35:07;;;;;;;2.40;2.20;;;18.90;99.90;;;;;;5014622;28;21061;-76
2021/08/05 06:37:33;;;;;;;6.80;2.50;;;19.00;99.90;;;;;;5033850;28;20414;-76
2021/08/05 06:39:59;;;;;;;2.83;2.37;;;19.00;99.90;;;;;;5023633;28;20924;-76
2021/08/05 06:42:25;;;;;;;3.37;2.50;;;19.00;99.90;;;;;;5027451;28;20633;-76
2021/08/05 06:44:51;;;;;;;1.53;1.43;;;19.00;99.90;;;;;;5019709;28;20496;-76
2021/08/05 06:47:16;;;;;;;3.03;1.40;;;19.10;99.90;;;;;;5028389;28;20253;-77
2021/08/05 06:49:43;;;;;;;2.87;2.43;;;19.20;99.90;;;;;;5016990;28;20489;-76
2021/08/05 06:52:08;;;;;;;2.40;2.20;;;19.20;99.90;;;;;;5013424;28;20179;-75
2021/08/05 06:54:34;;;;;;;3.00;2.80;;;19.30;99.90;;;;;;5015419;28;20439;-76
2021/08/05 06:57:00;;;;;;;3.53;1.83;;;19.50;99.90;;;;;;5028470;28;20202;-76
2021/08/05 06:59:25;;;;;;;1.87;1.77;;;19.50;99.90;;;;;;5030091;28;20229;-76
2021/08/05 07:01:51;;;;;;;3.13;1.87;;;19.50;99.90;;;;;;5022285;28;20634;-75
2021/08/05 07:04:16;;;;;;;3.43;2.53;;;19.50;99.90;;;;;;5034084;28;20215;-76
2021/08/05 07:06:42;;;;;;;2.80;2.53;;;19.50;99.90;;;;;;5022372;28;20295;-76
2021/08/05 07:09:08;;;;;;;3.83;2.90;;;19.50;99.90;;;;;;5025250;28;20587;-76
2021/08/05 07:11:34;;;;;;;2.40;2.20;;;19.60;99.90;;;;;;5029627;28;20199;-76
2021/08/05 07:13:59;;;;;;;1.77;1.63;;;19.60;99.90;;;;;;5033088;28;20521;-75
2021/08/05 07:16:25;;;;;;;4.00;2.17;;;19.60;99.90;;;;;;5030128;28;20270;-76
2021/08/05 07:18:50;;;;;;;2.53;1.90;;;19.60;99.90;;;;;;5016275;28;20633;-76
2021/08/05 07:21:16;;;;;;;4.83;2.63;;;19.60;99.90;;;;;;5034303;28;20181;-77
2021/08/05 07:23:41;;;;;;;3.33;2.00;;;19.70;99.90;;;;;;5016322;28;20202;-77
2021/08/05 07:26:07;;;;;;;2.23;2.13;;;19.60;99.90;;;;;;5006543;28;20250;-77
2021/08/05 07:28:33;;;;;;;2.57;2.40;;;19.60;99.90;;;;;;5013612;28;20267;-76
2021/08/05 07:30:58;;;;;;;2.13;1.40;;;19.60;99.90;;;;;;5029494;28;20187;-76
2021/08/05 07:33:24;;;;;;;2.97;2.13;;;19.60;99.90;;;;;;5015914;28;20246;-76
2021/08/05 07:35:50;;;;;;;3.20;2.90;;;19.70;99.90;;;;;;5017189;28;20188;-77
2021/08/05 07:38:16;;;;;;;6.43;4.60;;;19.80;99.90;;;;;;5032677;28;20464;-76
2021/08/05 07:40:41;;;;;;;2.30;1.60;;;19.90;99.90;;;;;;5015753;28;20164;-77
2021/08/05 07:43:07;;;;;;;2.53;2.13;;;20.00;99.90;;;;;;5024423;28;20167;-77
2021/08/05 07:45:33;;;;;;;2.20;2.10;;;20.00;99.90;;;;;;5013446;28;20300;-76
2021/08/05 07:47:59;;;;;;;2.60;2.40;;;20.00;99.90;;;;;;5031228;28;20417;-76
2021/08/05 07:50:25;;;;;;;4.13;2.50;;;20.10;99.90;;;;;;5026275;28;20971;-76
2021/08/05 07:52:50;;;;;;;6.57;3.67;;;20.20;99.90;;;;;;5013880;28;20839;-76
2021/08/05 07:55:16;;;;;;;3.13;2.30;;;20.20;99.90;;;;;;5022135;28;20201;-76
2021/08/05 07:57:42;;;;;;;3.93;3.63;;;20.30;99.90;;;;;;5022161;28;20173;-77
2021/08/05 08:00:08;;;;;;;4.40;2.53;;;20.40;99.90;;;;;;5009097;28;20287;-77
2021/08/05 08:02:34;;;;;;;2.37;2.17;;;20.50;99.90;;;;;;5022845;28;20935;-77
2021/08/05 08:04:59;;;;;;;1.67;1.57;;;20.60;99.90;;;;;;5004947;28;20513;-76
2021/08/05 08:07:25;;;;;;;3.53;3.20;;;20.70;99.90;;;;;;5022221;28;20179;-76
2021/08/05 08:09:50;;;;;;;8.13;2.83;;;20.80;99.90;;;;;;5014824;28;20172;-77
2021/08/05 08:12:16;;;;;;;4.77;3.03;;;20.90;99.90;;;;;;5018384;28;20811;-77
2021/08/05 08:14:42;;;;;;;4.67;4.27;;;20.90;99.90;;;;;;5018530;28;20211;-76
2021/08/05 08:17:08;;;;;;;2.80;2.57;;;21.00;99.90;;;;;;5020133;28;20431;-77
2021/08/05 08:19:33;;;;;;;3.03;2.70;;;21.10;99.90;;;;;;5022483;28;20557;-77
2021/08/05 08:22:00;;;;;;;2.90;2.70;;;21.20;99.90;;;;;;5023077;28;20266;-77
2021/08/05 08:24:26;;;;;;;4.90;2.77;;;21.40;99.90;;;;;;5020369;28;20207;-77
2021/08/05 08:26:52;;;;;;;2.47;2.17;;;21.40;99.90;;;;;;5022219;28;20430;-77
2021/08/05 08:29:18;;;;;;;2.90;2.23;;;21.40;99.90;;;;;;5018945;28;20438;-77
2021/08/05 08:31:43;;;;;;;5.83;3.23;;;21.40;99.90;;;;;;5020735;28;20183;-75
2021/08/05 08:34:09;;;;;;;5.30;4.80;;;21.50;99.90;;;;;;5020905;28;20183;-77
2021/08/05 08:36:34;;;;;;;2.60;2.00;;;21.60;99.90;;;;;;5021935;28;20184;-77
2021/08/05 08:39:01;;;;;;;2.90;2.60;;;21.60;99.90;;;;;;5022705;28;20211;-77
2021/08/05 08:41:30;;;;;;;3.70;2.17;;;21.70;99.90;;;;;;5019805;28;20180;-77
2021/08/05 08:43:55;;;;;;;2.30;1.77;;;21.70;99.90;;;;;;5027641;28;20877;-76
2021/08/05 08:46:22;;;;;;;7.80;2.50;;;21.70;99.90;;;;;;5021897;28;20500;-77
2021/08/05 08:48:52;;;;;;;4.60;3.87;;;21.70;99.90;;;;;;5022361;28;20175;-77
2021/08/05 08:51:19;;;;;;;6.00;4.53;;;21.80;99.90;;;;;;5016010;28;20427;-75
2021/08/05 08:53:49;;;;;;;3.93;2.83;;;21.80;99.90;;;;;;5021096;28;20430;-76
2021/08/05 08:56:14;;;;;;;3.10;2.33;;;21.80;99.90;;;;;;5017805;28;20969;-76
2021/08/05 08:58:41;;;;;;;2.50;2.10;;;21.90;99.90;;;;;;5017795;28;20430;-75
2021/08/05 09:01:09;;;;;;;2.57;1.80;;;22.00;99.90;;;;;;5021197;28;20183;-76
2021/08/05 09:03:34;;;;;;;3.00;2.73;;;22.00;99.90;;;;;;5021787;28;20500;-76
2021/08/05 09:06:00;;;;;;;3.00;2.77;;;22.10;99.90;;;;;;5020691;28;20485;-75
2021/08/05 09:08:26;;;;;;;1.70;1.60;;;22.10;99.90;;;;;;5025064;28;20179;-76
2021/08/05 09:10:58;;;;;;;4.10;3.43;;;22.00;99.90;;;;;;5020975;28;20664;-77
2021/08/05 09:13:23;;;;;;;4.27;2.93;;;22.10;99.90;;;;;;5018147;28;20180;-76
2021/08/05 09:15:49;;;;;;;1.83;1.73;;;22.20;99.90;;;;;;5020212;28;20890;-78
2021/08/05 09:18:28;;;;;;;2.60;2.40;;;22.30;99.90;;;;;;5026155;28;20199;-78
2021/08/05 09:21:26;;;;;;;5.37;3.43;;;22.30;99.90;;;;;;5011727;28;20423;-78
2021/08/05 09:23:59;;;;;;;3.30;2.40;;;22.50;99.90;;;;;;5023169;28;20466;-77
2021/08/05 09:26:43;;;;;;;3.07;2.87;;;22.60;99.90;;;;;;5024583;28;20419;-78
2021/08/05 09:29:13;;;;;;;1.87;1.67;;;22.60;99.90;;;;;;5013811;28;20418;-79
2021/08/05 09:31:41;;;;;;;2.57;2.13;;;22.70;99.90;;;;;;5028420;28;20411;-78
2021/08/05 09:34:11;;;;;;;1.53;1.30;;;22.80;99.90;;;;;;5027743;28;20426;-76
2021/08/05 09:36:37;;;;;;;1.73;1.43;;;23.00;99.90;;;;;;5027328;28;21125;-79
2021/08/05 09:39:24;;;;;;;2.13;1.60;;;23.00;99.90;;;;;;5015229;28;20810;-78
2021/08/05 09:41:55;;;;;;;3.30;1.43;;;23.10;99.90;;;;;;5028209;28;20823;-77
2021/08/05 09:44:21;;;;;;;2.97;2.57;;;23.20;99.90;;;;;;5027134;28;20458;-77
2021/08/05 09:46:47;;;;;;;3.13;1.10;;;23.40;99.90;;;;;;5028575;28;20399;-77
2021/08/05 09:49:17;;;;;;;1.63;1.33;;;23.50;99.90;;;;;;5023690;28;20872;-77
2021/08/05 09:51:43;;;;;;;2.53;2.33;;;23.60;99.90;;;;;;5010421;28;20172;-77
2021/08/05 09:54:08;;;;;;;1.70;1.60;;;23.70;99.90;;;;;;5028675;28;20498;-77
2021/08/05 09:56:37;;;;;;;1.50;1.27;;;24.10;99.90;;;;;;5012096;28;20172;-78
2021/08/05 09:59:07;;;;;;;1.43;1.17;;;24.40;99.90;;;;;;5006969;28;20181;-78
2021/08/05 10:01:33;;;;;;;1.30;1.00;;;24.80;99.90;;;;;;5027354;28;21010;-78
2021/08/05 10:04:19;;;;;;;1.53;0.80;;;25.30;99.90;;;;;;5027042;28;20482;-78
2021/08/05 10:07:05;;;;;;;1.40;1.30;;;25.80;99.90;;;;;;5026941;28;20425;-78
2021/08/05 10:09:32;;;;;;;1.07;0.93;;;26.50;99.90;;;;;;5025500;28;20411;-76
2021/08/05 10:12:23;;;;;;;1.73;1.63;;;27.10;99.90;;;;;;5022665;28;21003;-75
2021/08/05 10:14:51;;;;;;;2.23;1.60;;;27.60;99.90;;;;;;5022357;28;20454;-75
2021/08/05 10:17:18;;;;;;;1.50;1.40;;;28.00;99.90;;;;;;5004642;28;20455;-76
2021/08/05 10:19:47;;;;;;;1.70;1.30;;;28.40;99.90;;;;;;5009906;28;20422;-76
2021/08/05 10:22:15;;;;;;;4.67;3.50;;;28.90;99.90;;;;;;5013212;28;20895;-75
2021/08/05 10:24:44;;;;;;;2.30;1.53;;;29.40;99.90;;;;;;5002668;28;20459;-76
2021/08/05 10:27:13;;;;;;;2.07;1.63;;;29.70;99.90;;;;;;5022895;28;20415;-76
2021/08/05 10:29:40;;;;;;;1.20;1.10;;;30.10;99.60;;;;;;5022711;28;20461;-75
2021/08/05 10:32:07;;;;;;;1.73;1.10;;;30.50;96.10;;;;;;5021585;28;20760;-76
2021/08/05 10:34:34;;;;;;;1.23;1.03;;;30.70;91.30;;;;;;5022638;28;20446;-74
2021/08/05 10:37:02;;;;;;;2.23;1.10;;;30.70;79.40;;;;;;5022307;28;20422;-76
2021/08/05 10:39:28;;;;;;;1.50;1.17;;;31.20;82.20;;;;;;5013293;28;20925;-76
2021/08/05 10:41:57;;;;;;;1.50;1.40;;;31.40;80.30;;;;;;5022957;28;20449;-76
2021/08/05 10:44:24;;;;;;;6.23;3.17;;;31.50;77.90;;;;;;5020670;28;20457;-76
2021/08/05 10:46:51;;;;;;;3.07;2.17;;;31.70;77.40;;;;;;5014663;28;20406;-75
2021/08/05 10:49:17;;;;;;;1.53;1.30;;;31.80;83.60;;;;;;5022907;28;20407;-75
2021/08/05 10:51:43;;;;;;;1.53;1.20;;;31.60;73.30;;;;;;5022085;28;20458;-75
2021/08/05 10:54:08;;;;;;;1.00;0.90;;;32.00;74.30;;;;;;5022652;28;20564;-76
2021/08/05 10:56:35;;;;;;;1.20;1.10;;;32.50;76.20;;;;;;5002772;28;20180;-75
2021/08/05 10:59:03;;;;;;;3.63;1.00;;;32.70;66.30;;;;;;5005257;28;20172;-75
2021/08/05 11:01:47;;;;;;;2.23;1.30;;;32.30;67.30;;;;;;5022616;28;20948;-76
2021/08/05 11:04:34;;;;;;;1.20;1.10;;;32.50;68.30;;;;;;5023881;28;20450;-76
2021/08/05 11:07:22;;;;;;;0.90;0.70;;;32.90;70.50;;;;;;5011309;28;20498;-76
2021/08/05 11:09:49;;;;;;;2.40;2.00;;;32.60;63.20;;;;;;5022781;28;20477;-76
2021/08/05 11:12:40;;;;;;;1.20;1.10;;;32.70;66.10;;;;;;5021482;28;20411;-76
2021/08/05 11:15:33;;;;;;;3.33;2.60;;;32.80;63.30;;;;;;5020288;28;20457;-75
2021/08/05 11:18:13;;;;;;;1.67;1.17;;;32.90;69.20;;;;;;5014932;28;20414;-75
2021/08/05 11:20:51;;;;;;;0.90;0.70;;;32.90;66.10;;;;;;5003773;28;20407;-76
2021/08/05 11:23:27;;;;;;;1.30;0.80;;;32.30;61.50;;;;;;5006174;28;20768;-75
2021/08/05 11:25:52;;;;;;;0.90;0.80;;;31.90;61.20;;;;;;5022858;28;20453;-75
2021/08/05 11:28:34;;;;;;;1.00;0.83;;;31.70;64.70;;;;;;5023259;28;20453;-74
2021/08/05 11:31:03;;;;;;;0.90;0.80;;;31.40;68.10;;;;;;5023028;28;20171;-74
2021/08/05 11:33:41;;;;;;;1.53;1.43;;;31.00;69.40;;;;;;5008375;28;20422;-75
2021/08/05 11:36:31;;;;;;;1.30;1.20;;;30.40;72.10;;;;;;5004377;28;20478;-74
2021/08/05 11:38:59;;;;;;;1.27;1.10;;;30.00;70.50;;;;;;5015447;28;20419;-74
2021/08/05 11:41:50;;;;;;;1.20;1.10;;;29.50;73.50;;;;;;5032257;28;20418;-74
2021/08/05 11:44:27;;;;;;;0.90;0.70;;;29.20;78.90;;;;;;5024962;28;20458;-76
2021/08/05 11:47:05;;;;;;;1.37;0.80;;;28.80;76.90;;;;;;5027086;28;20484;-77
2021/08/05 11:49:35;;;;;;;1.00;0.70;;;28.50;80.60;;;;;;5009746;28;20412;-76
2021/08/05 11:52:18;;;;;;;0.93;0.77;;;28.30;85.80;;;;;;5014318;28;20419;-76
2021/08/05 11:54:48;;;;;;;1.53;0.80;;;28.10;88.10;;;;;;5015493;28;20538;-77
2021/08/05 11:57:16;;;;;;;0.90;0.70;;;27.90;87.20;;;;;;5012927;28;20419;-77
2021/08/05 11:59:45;;;;;;;0.90;0.80;;;27.50;90.70;;;;;;5022565;28;20927;-77
2021/08/05 12:02:18;;;;;;;2.80;1.43;;;27.50;96.50;;;;;;5032981;28;20505;-78
2021/08/05 12:04:44;;;;;;;5.50;4.17;;;27.50;95.30;;;;;;5018377;28;20454;-77
2021/08/05 12:07:18;;;;;;;0.83;0.67;;;28.00;99.90;;;;;;5035010;28;20501;-78
2021/08/05 12:09:48;;;;;;;0.90;0.70;;;28.50;95.70;;;;;;5022169;28;20414;-78
2021/08/05 12:12:14;;;;;;;1.00;0.90;;;28.90;93.30;;;;;;5013039;28;20477;-78
2021/08/05 12:14:46;;;;;;;0.90;0.80;;;29.50;86.20;;;;;;5026070;28;20540;-77
2021/08/05 12:17:11;;;;;;;1.00;0.70;;;30.00;81.70;;;;;;5001956;28;20526;-78
2021/08/05 12:19:46;;;;;;;1.70;0.80;;;30.60;79.20;;;;;;5023898;28;20434;-78
2021/08/05 12:22:12;;;;;;;0.90;0.80;;;30.90;73.30;;;;;;5013487;28;20287;-79
2021/08/05 12:24:50;;;;;;;1.20;0.90;;;31.20;69.90;;;;;;5029429;28;20485;-79
2021/08/05 12:27:19;;;;;;;1.60;1.50;;;31.30;71.90;;;;;;5017385;28;20186;-78
2021/08/05 12:30:07;;;;;;;0.90;0.80;;;31.30;71.20;;;;;;5033561;28;20915;-78
2021/08/05 12:33:03;;;;;;;1.00;0.83;;;31.30;65.00;;;;;;5030032;28;20415;-78
2021/08/05 12:35:28;;;;;;;1.43;0.73;;;31.40;64.00;;;;;;5027523;28;20821;-75
2021/08/05 12:38:11;;;;;;;1.27;1.10;;;31.50;64.60;;;;;;5023206;28;20423;-75
2021/08/05 12:40:44;;;;;;;1.10;1.00;;;31.80;71.50;;;;;;5013593;28;20263;-75
2021/08/05 12:43:12;;;;;;;1.20;0.80;;;31.90;71.10;;;;;;5012404;28;20419;-76
2021/08/05 12:45:41;;;;;;;1.20;1.10;;;31.50;71.20;;;;;;5012842;28;20427;-77
2021/08/05 12:48:08;;;;;;;1.37;1.10;;;31.60;75.40;;;;;;5016784;28;20495;-79
2021/08/05 12:50:40;;;;;;;1.07;0.87;;;31.50;73.90;;;;;;5032494;28;20403;-78
2021/08/05 12:53:05;;;;;;;1.30;0.90;;;31.30;73.40;;;;;;5004667;28;20461;-78
2021/08/05 12:55:48;;;;;;;1.40;1.30;;;30.60;73.40;;;;;;5011768;28;20442;-78